createdAt,value
2022-12-18T00:02:02.785Z,5.60
2022-12-18T00:07:04.268Z,10.02
2022-12-18T00:17:17.226Z,5.93
2022-12-18T00:22:18.649Z,4.68
2022-12-18T00:27:20.067Z,5.15
2022-12-18T00:32:21.515Z,4.43
2022-12-18T00:37:22.957Z,7.25
2022-12-18T00:42:24.401Z,8.75
2022-12-18T00:47:25.830Z,4.65
2022-12-18T00:52:27.276Z,4.10
2022-12-18T00:57:28.731Z,4.45
2022-12-18T01:02:30.290Z,3.40
2022-12-18T01:07:31.747Z,5.20
2022-12-18T01:12:33.194Z,7.30
2022-12-18T01:17:34.616Z,6.07
2022-12-18T01:22:36.045Z,4.25
2022-12-18T01:27:37.501Z,4.40
2022-12-18T01:32:38.957Z,3.85
2022-12-18T01:37:40.419Z,1.92
2022-12-18T01:42:41.880Z,2.97
2022-12-18T01:47:43.334Z,3.53
2022-12-18T01:52:47.003Z,4.35
2022-12-18T01:57:48.439Z,5.03
2022-12-18T02:02:50.035Z,4.55
2022-12-18T02:07:51.529Z,4.35
2022-12-18T02:12:52.986Z,4.60
2022-12-18T02:17:54.452Z,4.18
2022-12-18T02:22:55.878Z,3.38
2022-12-18T02:27:57.294Z,4.97
2022-12-18T02:32:58.747Z,6.63
2022-12-18T02:38:00.165Z,2.03
2022-12-18T02:43:01.619Z,2.92
2022-12-18T02:48:03.083Z,3.85
2022-12-18T02:53:04.504Z,5.80
2022-12-18T02:58:05.954Z,4.43
2022-12-18T03:03:07.477Z,4.32
2022-12-18T03:08:08.961Z,3.42
2022-12-18T03:13:10.420Z,3.80
2022-12-18T03:18:11.882Z,3.42
2022-12-18T03:23:13.318Z,6.15
2022-12-18T03:28:14.770Z,3.75
2022-12-18T03:33:16.245Z,4.30
2022-12-18T03:38:17.700Z,2.42
2022-12-18T03:43:19.171Z,3.72
2022-12-18T03:48:20.610Z,4.07
2022-12-18T03:53:22.055Z,4.35
2022-12-18T03:58:23.522Z,2.33
2022-12-18T04:03:26.648Z,3.72
2022-12-18T04:08:28.313Z,6.63
2022-12-18T04:13:29.758Z,6.13
2022-12-18T04:18:31.715Z,4.68
2022-12-18T04:29:02.083Z,5.32
2022-12-18T04:34:03.502Z,4.63
2022-12-18T04:39:04.909Z,3.53
2022-12-18T04:44:06.367Z,6.65
2022-12-18T04:49:08.004Z,7.10
2022-12-18T04:54:09.476Z,2.75
2022-12-18T04:59:10.929Z,7.57
2022-12-18T05:04:12.430Z,5.72
2022-12-18T05:09:13.943Z,5.90
2022-12-18T05:14:15.366Z,6.82
2022-12-18T05:19:16.814Z,5.07
2022-12-18T05:24:18.262Z,6.43
2022-12-18T05:29:19.827Z,4.85
2022-12-18T05:34:21.288Z,6.45
2022-12-18T05:39:22.709Z,4.85
2022-12-18T05:44:24.136Z,5.03
2022-12-18T05:49:25.575Z,7.32
2022-12-18T05:54:27.031Z,7.90
2022-12-18T05:59:28.450Z,5.57
2022-12-18T06:04:29.853Z,6.28
2022-12-18T06:09:31.283Z,7.65
2022-12-18T06:14:32.755Z,6.00
2022-12-18T06:19:34.216Z,8.95
2022-12-18T06:24:36.985Z,9.70
2022-12-18T06:29:48.731Z,8.50
2022-12-18T06:34:50.146Z,10.13
2022-12-18T06:39:51.591Z,9.07
2022-12-18T06:44:53.043Z,7.13
2022-12-18T06:49:54.499Z,8.13
2022-12-18T06:54:55.925Z,7.38
2022-12-18T06:59:57.412Z,10.98
2022-12-18T07:04:58.830Z,9.50
2022-12-18T07:10:00.330Z,11.05
2022-12-18T07:15:01.760Z,8.88
2022-12-18T07:20:03.250Z,9.85
2022-12-18T07:25:04.871Z,10.48
2022-12-18T07:30:06.331Z,9.88
2022-12-18T07:35:07.818Z,5.82
2022-12-18T07:40:09.317Z,7.78
2022-12-18T07:45:10.770Z,7.57
2022-12-18T07:50:12.203Z,9.00
2022-12-18T07:55:13.622Z,7.38
2022-12-18T08:00:15.074Z,9.40
2022-12-18T08:05:16.545Z,7.45
2022-12-18T08:10:18.005Z,6.15
2022-12-18T08:15:19.472Z,7.78
2022-12-18T08:20:20.938Z,7.05
2022-12-18T08:25:22.366Z,6.15
2022-12-18T08:30:23.790Z,6.80
2022-12-18T08:35:25.521Z,8.00
2022-12-18T08:40:27.055Z,9.48
2022-12-18T08:45:28.534Z,7.60
2022-12-18T08:50:29.953Z,8.73
2022-12-18T08:55:31.364Z,8.85
2022-12-18T09:00:32.819Z,8.57
2022-12-18T09:05:34.239Z,9.45
2022-12-18T09:10:40.163Z,7.80
2022-12-18T09:15:44.588Z,8.88
2022-12-18T09:20:46.014Z,9.45
2022-12-18T09:25:47.441Z,7.53
2022-12-18T09:30:48.928Z,9.50
2022-12-18T09:35:50.406Z,8.88
2022-12-18T09:40:51.862Z,9.88
2022-12-18T09:45:53.528Z,9.75
2022-12-18T09:50:55.019Z,7.93
2022-12-18T09:55:56.446Z,7.95
2022-12-18T10:00:57.884Z,8.90
2022-12-18T10:05:59.294Z,9.25
2022-12-18T10:11:00.709Z,7.05
2022-12-18T10:16:02.245Z,7.55
2022-12-18T10:21:03.771Z,9.35
2022-12-18T10:26:06.227Z,9.50
2022-12-18T10:31:07.727Z,9.13
2022-12-18T10:36:09.227Z,8.30
2022-12-18T10:41:10.651Z,8.68
2022-12-18T10:46:13.362Z,7.60
2022-12-18T10:51:14.891Z,12.95
2022-12-18T10:56:16.342Z,8.57
2022-12-18T11:01:17.925Z,9.82
2022-12-18T11:06:19.438Z,6.68
2022-12-18T11:11:20.851Z,9.40
2022-12-18T11:16:22.410Z,9.98
2022-12-18T11:21:23.914Z,7.38
2022-12-18T11:26:25.346Z,8.70
2022-12-18T11:31:29.519Z,8.20
2022-12-18T11:36:31.031Z,5.68
2022-12-18T11:41:32.474Z,7.20
2022-12-18T11:46:33.947Z,6.28
2022-12-18T11:51:35.399Z,6.30
2022-12-18T11:56:36.815Z,5.47
2022-12-18T12:01:43.901Z,8.68
2022-12-18T12:06:45.906Z,5.20
2022-12-18T12:11:47.330Z,8.98
2022-12-18T12:16:48.784Z,8.23
2022-12-18T12:21:50.243Z,8.90
2022-12-18T12:26:51.704Z,9.63
2022-12-18T12:31:53.183Z,9.40
2022-12-18T12:36:54.723Z,8.50
2022-12-18T12:41:56.159Z,11.27
2022-12-18T12:46:57.613Z,8.85
2022-12-18T12:51:59.440Z,12.75
2022-12-18T12:57:01.299Z,8.57
2022-12-18T13:02:02.891Z,11.57
2022-12-18T13:07:04.699Z,8.38
2022-12-18T13:12:06.286Z,10.82
2022-12-18T13:17:08.343Z,10.60
2022-12-18T13:22:10.179Z,11.65
2022-12-18T13:27:11.663Z,10.77
2022-12-18T13:32:18.352Z,11.52
2022-12-18T13:37:21.316Z,9.48
2022-12-18T13:42:22.916Z,9.55
2022-12-18T13:47:24.342Z,11.93
2022-12-18T13:52:25.761Z,9.80
2022-12-18T13:57:27.424Z,9.75
2022-12-18T14:02:28.995Z,13.93
2022-12-18T14:07:33.096Z,7.57
2022-12-18T14:12:40.885Z,6.72
2022-12-18T14:17:42.313Z,11.27
2022-12-18T14:22:43.735Z,8.52
2022-12-18T14:27:45.154Z,11.98
2022-12-18T14:32:46.579Z,9.60
2022-12-18T14:37:47.997Z,10.43
2022-12-18T14:42:49.447Z,9.00
2022-12-18T14:47:50.880Z,10.18
2022-12-18T14:52:52.327Z,11.27
2022-12-18T14:57:53.754Z,11.23
2022-12-18T15:02:55.363Z,9.95
2022-12-18T15:07:56.865Z,11.90
2022-12-18T15:12:58.310Z,12.40
2022-12-18T15:17:59.755Z,11.65
2022-12-18T15:23:01.187Z,6.03
2022-12-18T15:28:02.607Z,12.25
2022-12-18T15:33:04.029Z,7.05
2022-12-18T15:38:05.445Z,11.02
2022-12-18T15:43:06.891Z,10.35
2022-12-18T15:48:08.351Z,11.77
2022-12-18T15:53:09.780Z,8.80
2022-12-18T15:58:11.234Z,10.17
2022-12-18T16:03:14.318Z,11.63
2022-12-18T16:08:15.830Z,10.37
2022-12-18T16:13:17.281Z,8.67
2022-12-18T16:18:18.741Z,8.35
2022-12-18T16:23:20.211Z,10.00
2022-12-18T16:28:21.634Z,11.00
2022-12-18T16:33:23.058Z,10.80
2022-12-18T16:38:24.466Z,10.13
2022-12-18T16:43:25.915Z,9.27
2022-12-18T16:48:27.372Z,10.33
2022-12-18T16:53:29.287Z,13.93
2022-12-18T16:58:30.766Z,12.30
2022-12-18T17:03:32.264Z,12.37
2022-12-18T17:08:33.780Z,9.48
2022-12-18T17:13:35.234Z,11.10
2022-12-18T17:18:36.687Z,12.07
2022-12-18T17:23:38.644Z,13.67
2022-12-18T17:28:40.687Z,13.60
2022-12-18T17:33:42.754Z,12.13
2022-12-18T17:38:44.399Z,13.37
2022-12-18T17:43:45.879Z,14.00
2022-12-18T17:48:47.335Z,14.60
2022-12-18T17:53:48.760Z,9.17
2022-12-18T17:58:50.177Z,14.10
2022-12-18T18:03:53.614Z,15.13
2022-12-18T18:08:55.547Z,15.70
2022-12-18T18:14:00.225Z,8.63
2022-12-18T18:19:01.682Z,11.73
2022-12-18T18:24:03.178Z,12.60
2022-12-18T18:29:05.226Z,11.90
2022-12-18T18:34:07.193Z,11.23
2022-12-18T18:39:09.620Z,12.33
2022-12-18T18:44:11.932Z,13.53
2022-12-18T18:49:13.367Z,14.83
2022-12-18T18:54:14.777Z,8.23
2022-12-18T18:59:16.239Z,15.47
2022-12-18T19:04:17.675Z,9.27
2022-12-18T19:09:19.128Z,13.50
2022-12-18T19:14:20.758Z,15.93
2022-12-18T19:19:22.216Z,12.57
2022-12-18T19:24:23.785Z,14.30
2022-12-18T19:29:25.209Z,13.13
2022-12-18T19:34:26.632Z,9.60
2022-12-18T19:39:28.052Z,10.17
2022-12-18T19:44:29.507Z,12.73
2022-12-18T19:49:30.943Z,8.23
2022-12-18T19:54:32.400Z,10.67
2022-12-18T19:59:33.824Z,11.67
2022-12-18T20:04:35.279Z,12.27
2022-12-18T20:09:36.753Z,12.63
2022-12-18T20:14:38.716Z,9.33
2022-12-18T20:19:40.146Z,10.73
2022-12-18T20:24:42.184Z,14.30
2022-12-18T20:29:43.785Z,10.47
2022-12-18T20:34:45.248Z,10.50
2022-12-18T20:39:46.725Z,12.80
2022-12-18T20:44:48.899Z,14.93
2022-12-18T20:49:50.322Z,14.63
2022-12-18T20:54:51.766Z,10.03
2022-12-18T20:59:53.175Z,12.03
2022-12-18T21:04:54.607Z,13.27
2022-12-18T21:09:56.015Z,10.77
2022-12-18T21:14:57.502Z,12.80
2022-12-18T21:19:58.922Z,13.03
2022-12-18T21:25:00.563Z,8.77
2022-12-18T21:30:02.010Z,10.87
2022-12-18T21:35:03.471Z,9.90
2022-12-18T21:40:04.902Z,12.37
2022-12-18T21:45:06.346Z,14.77
2022-12-18T21:50:07.810Z,11.13
2022-12-18T21:55:10.257Z,9.27
2022-12-18T22:00:18.574Z,12.17
2022-12-18T22:05:21.061Z,12.50
2022-12-18T22:10:22.486Z,10.53
2022-12-18T22:15:23.950Z,9.83
2022-12-18T22:20:25.414Z,11.57
2022-12-18T22:25:28.232Z,12.67
2022-12-18T22:30:29.656Z,15.17
2022-12-18T22:35:31.520Z,7.93
2022-12-18T22:40:32.963Z,13.07
2022-12-18T22:45:35.722Z,12.77
2022-12-18T22:50:40.259Z,10.77
2022-12-18T22:55:41.712Z,11.47
2022-12-18T23:00:43.136Z,13.80
2022-12-18T23:05:44.604Z,10.33
2022-12-18T23:10:46.050Z,13.03
2022-12-18T23:15:47.515Z,15.50
2022-12-18T23:20:48.960Z,17.83
2022-12-18T23:25:51.522Z,14.63
2022-12-18T23:30:53.023Z,11.47
2022-12-18T23:35:54.525Z,14.00
2022-12-18T23:40:56.337Z,13.27
2022-12-18T23:45:58.295Z,15.63
2022-12-18T23:50:59.713Z,12.07
2022-12-18T23:56:01.163Z,15.20
